Alix Anne Eckstein — WDH6446 — position and weather

sailwx.info

Track history (hours):
 
Tides and Currents Weather Stations Pressure Air Temp Water Temp Dewpoint Dewpoint Depression Visibility Wind Speed Wind Dir Waves Ship Positions

Alix Anne Eckstein

Owner: Marquette Transportation Co. LLC, Paducah, KY. More information available from US FCC via Universal Licensing System and Coast Guard Vessel Documentation Center.

Last reported at 2017-Sep-19 21:19 UTC. Time now 2017-Sep-22 20:53 UTC.
Position N 31°60' W 091°05'.

Length 48 m; draft 2.7 m.

Type: Tow > 200 m length. MMSI: 367638050.

Date/timePositionNaut miles runAvg speedWind from/ knotsBaromVisibWave heightAir tempDewpointWater temp
2017-Sep-19 21:19N 31°60' W 091°05'3 9.0
2017-Sep-19 20:57N 32°03' W 091°03'4 8.1
2017-Sep-19 20:28N 32°06' W 091°06'2 3.6
2017-Sep-19 20:00N 32°08' W 091°06'3 6.2
2017-Sep-19 19:30N 32°07' W 091°03'4 7.1
2017-Sep-19 19:00N 32°10' W 091°00'4 8.5
2017-Sep-19 18:30N 32°14' W 090°59'4 8.4
2017-Sep-19 18:00N 32°17' W 090°56'3 6.6
2017-Sep-19 17:30N 32°21' W 090°55'4 7.5
2017-Sep-19 17:00N 32°21' W 090°59'4 7.1
2017-Sep-19 16:30N 32°25' W 090°59'4 8.2
2017-Sep-19 16:00N 32°26' W 091°04'4 7.3
2017-Sep-19 15:30N 32°29' W 091°07'1 1.4
2017-Sep-19 15:01N 32°30' W 091°07'4 7.6
2017-Sep-19 14:31N 32°33' W 091°06'4 8.8
2017-Sep-19 14:00N 32°37' W 091°09'8 3.9
2017-Sep-19 12:01N 32°45' W 091°09'1 6.9
2017-Sep-19 11:49N 32°46' W 091°09'  
2017-Sep-11 21:44N 32°39' W 091°09'2 4.3
2017-Sep-11 21:15N 32°37' W 091°09'1 4.6
2017-Sep-11 21:00N 32°36' W 091°09'2 5.0
2017-Sep-11 20:30N 32°34' W 091°07'3 4.6
2017-Sep-11 19:56N 32°32' W 091°06'2 5.4
2017-Sep-11 19:30N 32°30' W 091°07'0 0.3
2017-Sep-11 18:59N 32°30' W 091°07'0 0.7
2017-Sep-11 18:30N 32°29' W 091°07'2 4.8
2017-Sep-11 18:00N 32°27' W 091°05'3 5.2
2017-Sep-11 17:30N 32°26' W 091°03'3 5.0
2017-Sep-11 17:00N 32°25' W 091°00'2 4.2
2017-Sep-11 16:30N 32°23' W 090°60'2 4.1
2017-Sep-11 16:00N 32°21' W 090°59'3 5.4
2017-Sep-11 15:30N 32°21' W 090°56'2 4.2
2017-Sep-11 15:00N 32°19' W 090°54'2 4.8
2017-Sep-11 14:30N 32°17' W 090°56'3 5.0
2017-Sep-11 14:00N 32°16' W 090°58'2 4.2
2017-Sep-11 13:30N 32°14' W 090°59'2 5.0
2017-Sep-11 13:00N 32°11' W 090°60'2 4.8
2017-Sep-11 12:30N 32°09' W 091°00'2 4.6
2017-Sep-11 12:00N 32°07' W 091°02'3 5.1
2017-Sep-11 11:30N 32°08' W 091°05'2 3.7
2017-Sep-11 11:00N 32°07' W 091°06'4 4.9
2017-Sep-11 10:10N 32°03' W 091°03'1 5.6
2017-Sep-11 10:00N 32°02' W 091°04'3 5.8
2017-Sep-11 09:30N 31°60' W 091°06'4 5.2
2017-Sep-11 08:42N 31°59' W 091°10'1 5.4
2017-Sep-11 08:30N 31°58' W 091°11'7 4.9
2017-Sep-11 07:00N 31°52' W 091°15'4 5.0
2017-Sep-11 06:10N 31°51' W 091°20'1 4.6
2017-Sep-11 05:55N 31°50' W 091°21'  
Track history (hours):
 
Tides and Currents Weather Stations Pressure Air Temp Water Temp Dewpoint Dewpoint Depression Visibility Wind Speed Wind Dir Waves Ship Positions

Alix Anne Eckstein

Owner: Marquette Transportation Co. LLC, Paducah, KY. More information available from US FCC via Universal Licensing System and Coast Guard Vessel Documentation Center.

Last reported at 2017-Sep-19 21:19 UTC. Time now 2017-Sep-22 20:53 UTC.
Position N 31°60' W 091°05'.

Length 48 m; draft 2.7 m.

Type: Tow > 200 m length. MMSI: 367638050.

Date/timePositionNaut miles runAvg speedWind from/ knotsBaromVisibWave heightAir tempDewpointWater temp
2017-Sep-19 21:19N 31°60' W 091°05'3 9.0
2017-Sep-19 20:57N 32°03' W 091°03'4 8.1
2017-Sep-19 20:28N 32°06' W 091°06'2 3.6
2017-Sep-19 20:00N 32°08' W 091°06'3 6.2
2017-Sep-19 19:30N 32°07' W 091°03'4 7.1
2017-Sep-19 19:00N 32°10' W 091°00'4 8.5
2017-Sep-19 18:30N 32°14' W 090°59'4 8.4
2017-Sep-19 18:00N 32°17' W 090°56'3 6.6
2017-Sep-19 17:30N 32°21' W 090°55'4 7.5
2017-Sep-19 17:00N 32°21' W 090°59'4 7.1
2017-Sep-19 16:30N 32°25' W 090°59'4 8.2
2017-Sep-19 16:00N 32°26' W 091°04'4 7.3
2017-Sep-19 15:30N 32°29' W 091°07'1 1.4
2017-Sep-19 15:01N 32°30' W 091°07'4 7.6
2017-Sep-19 14:31N 32°33' W 091°06'4 8.8
2017-Sep-19 14:00N 32°37' W 091°09'8 3.9
2017-Sep-19 12:01N 32°45' W 091°09'1 6.9
2017-Sep-19 11:49N 32°46' W 091°09'  
2017-Sep-11 21:44N 32°39' W 091°09'2 4.3
2017-Sep-11 21:15N 32°37' W 091°09'1 4.6
2017-Sep-11 21:00N 32°36' W 091°09'2 5.0
2017-Sep-11 20:30N 32°34' W 091°07'3 4.6
2017-Sep-11 19:56N 32°32' W 091°06'2 5.4
2017-Sep-11 19:30N 32°30' W 091°07'0 0.3
2017-Sep-11 18:59N 32°30' W 091°07'0 0.7
2017-Sep-11 18:30N 32°29' W 091°07'2 4.8
2017-Sep-11 18:00N 32°27' W 091°05'3 5.2
2017-Sep-11 17:30N 32°26' W 091°03'3 5.0
2017-Sep-11 17:00N 32°25' W 091°00'2 4.2
2017-Sep-11 16:30N 32°23' W 090°60'2 4.1
2017-Sep-11 16:00N 32°21' W 090°59'3 5.4
2017-Sep-11 15:30N 32°21' W 090°56'2 4.2
2017-Sep-11 15:00N 32°19' W 090°54'2 4.8
2017-Sep-11 14:30N 32°17' W 090°56'3 5.0
2017-Sep-11 14:00N 32°16' W 090°58'2 4.2
2017-Sep-11 13:30N 32°14' W 090°59'2 5.0
2017-Sep-11 13:00N 32°11' W 090°60'2 4.8
2017-Sep-11 12:30N 32°09' W 091°00'2 4.6
2017-Sep-11 12:00N 32°07' W 091°02'3 5.1
2017-Sep-11 11:30N 32°08' W 091°05'2 3.7
2017-Sep-11 11:00N 32°07' W 091°06'4 4.9
2017-Sep-11 10:10N 32°03' W 091°03'1 5.6
2017-Sep-11 10:00N 32°02' W 091°04'3 5.8
2017-Sep-11 09:30N 31°60' W 091°06'4 5.2
2017-Sep-11 08:42N 31°59' W 091°10'1 5.4
2017-Sep-11 08:30N 31°58' W 091°11'7 4.9
2017-Sep-11 07:00N 31°52' W 091°15'4 5.0
2017-Sep-11 06:10N 31°51' W 091°20'1 4.6
2017-Sep-11 05:55N 31°50' W 091°21'  

Dump ship's entire track history